createdAt,value
2023-05-24T00:05:04.730Z,18
2023-05-24T00:10:56.025Z,18
2023-05-24T00:16:32.537Z,18
2023-05-24T00:22:26.206Z,18
2023-05-24T00:28:18.333Z,18
2023-05-24T00:33:54.977Z,17.9
2023-05-24T00:39:46.722Z,17.9
2023-05-24T00:45:38.560Z,17.9
2023-05-24T00:51:31.608Z,17.9
2023-05-24T00:57:08.455Z,17.9
2023-05-24T01:03:01.342Z,17.9
2023-05-24T01:08:56.133Z,17.9
2023-05-24T01:14:48.036Z,17.9
2023-05-24T01:20:39.548Z,17.9
2023-05-24T01:26:30.608Z,17.9
2023-05-24T01:32:22.977Z,17.9
2023-05-24T01:37:59.479Z,17.9
2023-05-24T01:43:35.655Z,17.9
2023-05-24T01:49:27.343Z,17.9
2023-05-24T01:55:19.161Z,17.9
2023-05-24T02:01:10.719Z,17.9
2023-05-24T02:06:47.473Z,17.9
2023-05-24T02:12:38.633Z,17.9
2023-05-24T02:18:30.150Z,17.9
2023-05-24T02:24:06.627Z,17.9
2023-05-24T02:29:58.249Z,17.9
2023-05-24T02:35:49.922Z,17.9
2023-05-24T02:41:40.683Z,17.9
2023-05-24T02:47:32.625Z,17.9
2023-05-24T02:53:09.145Z,17.9
2023-05-24T02:59:00.884Z,17.9
2023-05-24T03:04:53.859Z,17.9
2023-05-24T03:10:47.690Z,17.9
2023-05-24T03:16:38.263Z,17.9
2023-05-24T03:22:30.918Z,17.9
2023-05-24T03:28:22.493Z,17.9
2023-05-24T03:34:13.791Z,17.9
2023-05-24T03:40:05.413Z,17.9
2023-05-24T03:46:11.596Z,17.9
2023-05-24T03:52:03.548Z,17.9
2023-05-24T03:57:55.550Z,17.8
2023-05-24T04:04:02.403Z,17.8
2023-05-24T04:09:22.746Z,17.8
2023-05-24T04:15:14.544Z,17.8
2023-05-24T04:21:07.818Z,17.8
2023-05-24T04:26:59.558Z,17.8
2023-05-24T04:32:52.115Z,17.8
2023-05-24T04:38:44.097Z,17.8
2023-05-24T04:44:35.342Z,17.8
2023-05-24T04:50:28.009Z,17.8
2023-05-24T04:56:19.467Z,17.8
2023-05-24T05:01:57.974Z,17.8
2023-05-24T05:07:50.612Z,17.8
2023-05-24T05:13:42.997Z,17.8
2023-05-24T05:19:35.189Z,17.8
2023-05-24T05:25:12.523Z,17.8
2023-05-24T05:30:48.602Z,17.8
2023-05-24T05:36:27.918Z,17.8
2023-05-24T05:42:20.393Z,17.8
2023-05-24T05:47:56.288Z,17.8
2023-05-24T05:53:47.998Z,17.8
2023-05-24T05:59:40.018Z,17.8
2023-05-24T06:05:33.774Z,17.8
2023-05-24T06:11:26.591Z,17.8
2023-05-24T06:17:18.406Z,17.8
2023-05-24T06:23:20.895Z,17.8
2023-05-24T06:29:11.597Z,17.8
2023-05-24T06:35:11.980Z,17.8
2023-05-24T06:41:03.428Z,17.8
2023-05-24T06:46:53.753Z,17.8
2023-05-24T06:52:47.390Z,17.8
2023-05-24T06:58:41.278Z,17.8
2023-05-24T07:04:33.605Z,17.8
2023-05-24T07:10:25.427Z,17.9
2023-05-24T07:16:02.093Z,17.8
2023-05-24T07:21:54.508Z,17.9
2023-05-24T07:27:48.766Z,17.8
2023-05-24T07:33:23.184Z,17.8
2023-05-24T07:39:02.506Z,17.9
2023-05-24T07:44:54.532Z,17.8
2023-05-24T07:50:31.516Z,17.9
2023-05-24T07:56:23.085Z,17.9
2023-05-24T08:02:15.545Z,17.9
2023-05-24T08:07:52.539Z,17.9
2023-05-24T08:13:43.834Z,17.9
2023-05-24T08:19:21.008Z,17.9
2023-05-24T08:25:16.067Z,17.9
2023-05-24T08:31:08.249Z,17.9
2023-05-24T08:37:00.875Z,17.9
2023-05-24T08:43:04.393Z,18
2023-05-24T08:48:41.614Z,18
2023-05-24T08:54:36.297Z,18.1
2023-05-24T09:00:28.395Z,18.1
2023-05-24T09:05:51.327Z,18.1
2023-05-24T09:11:27.870Z,18.2
2023-05-24T09:17:32.087Z,18.3
2023-05-24T09:23:29.752Z,18.2
2023-05-24T09:29:06.309Z,18.3
2023-05-24T09:34:43.851Z,18.3
2023-05-24T09:40:34.929Z,18.3
2023-05-24T09:45:57.554Z,18.3
2023-05-24T09:51:50.416Z,18.4
2023-05-24T09:57:27.479Z,18.4
2023-05-24T10:03:31.995Z,18.4
2023-05-24T10:09:27.886Z,18.4
2023-05-24T10:15:19.605Z,18.4
2023-05-24T10:44:43.748Z,18.5
2023-05-24T10:50:24.028Z,18.5
2023-05-24T10:55:54.954Z,18.5
2023-05-24T11:01:22.230Z,18.5
2023-05-24T11:06:44.468Z,18.5
2023-05-24T11:11:49.917Z,18.5
2023-05-24T11:17:13.984Z,18.5
2023-05-24T11:22:20.562Z,18.6
2023-05-24T11:27:56.536Z,18.6
2023-05-24T11:33:39.236Z,18.6
2023-05-24T11:39:25.457Z,18.6
2023-05-24T11:45:02.438Z,18.6
2023-05-24T11:50:49.064Z,18.6
2023-05-24T11:56:26.963Z,18.6
2023-05-24T12:02:03.853Z,18.5
2023-05-24T12:07:45.768Z,18.5
2023-05-24T12:13:35.996Z,18.5
2023-05-24T12:19:20.227Z,18.5
2023-05-24T12:25:09.904Z,18.6
2023-05-24T12:30:46.986Z,18.5
2023-05-24T12:36:24.799Z,18.6
2023-05-24T12:42:19.374Z,18.6
2023-05-24T12:48:11.716Z,18.6
2023-05-24T12:53:47.866Z,18.6
2023-05-24T13:15:46.166Z,18.8
2023-05-24T13:21:23.442Z,18.8
2023-05-24T13:38:43.945Z,18.8
2023-05-24T13:44:03.753Z,18.8
2023-05-24T13:49:38.375Z,18.8
2023-05-24T14:40:20.075Z,18.6
2023-05-24T14:45:41.226Z,18.6
2023-05-24T15:47:46.311Z,18.8
2023-05-24T15:54:48.286Z,18.8
2023-05-24T16:00:38.836Z,18.8
2023-05-24T16:17:49.019Z,18.8
2023-05-24T16:23:40.906Z,18.8
2023-05-24T16:29:35.150Z,18.8
2023-05-24T16:35:45.425Z,18.8
2023-05-24T16:41:38.599Z,18.8
2023-05-24T16:47:15.050Z,18.8
2023-05-24T16:53:06.940Z,18.8
2023-05-24T16:58:58.505Z,18.8
2023-05-24T17:04:54.155Z,18.8
2023-05-24T17:10:48.860Z,18.8
2023-05-24T17:16:40.488Z,18.8
2023-05-24T17:22:32.554Z,18.8
2023-05-24T17:28:12.475Z,18.8
2023-05-24T17:34:04.771Z,18.8
2023-05-24T17:39:56.099Z,18.8
2023-05-24T17:45:46.502Z,18.8
2023-05-24T17:51:28.160Z,18.8
2023-05-24T17:57:23.340Z,18.8
2023-05-24T18:03:15.119Z,18.8
2023-05-24T18:09:10.236Z,18.8
2023-05-24T18:15:03.510Z,18.8
2023-05-24T18:20:56.210Z,18.8
2023-05-24T18:26:52.656Z,18.8
2023-05-24T18:32:56.219Z,18.8
2023-05-24T18:38:39.933Z,18.8
2023-05-24T18:44:17.149Z,18.8
2023-05-24T18:50:10.203Z,18.8
2023-05-24T18:55:46.266Z,18.8
2023-05-24T19:01:25.079Z,18.8
2023-05-24T19:07:18.978Z,18.8
2023-05-24T19:12:54.621Z,18.8
2023-05-24T19:18:47.900Z,18.8
2023-05-24T19:24:40.995Z,18.8
2023-05-24T19:30:24.816Z,18.8
2023-05-24T19:36:13.083Z,18.8
2023-05-24T19:41:49.603Z,18.8
2023-05-24T19:47:41.446Z,18.8
2023-05-24T19:58:56.109Z,18.8
2023-05-24T21:28:00.252Z,18.6
2023-05-24T21:44:49.413Z,18.6
2023-05-24T21:50:41.825Z,18.6
2023-05-24T21:56:33.839Z,18.6
2023-05-24T22:02:28.750Z,18.6
2023-05-24T22:08:21.352Z,18.6
2023-05-24T22:14:12.630Z,18.6
2023-05-24T22:20:12.635Z,18.6
2023-05-24T22:26:04.715Z,18.6
2023-05-24T22:31:42.819Z,18.6
2023-05-24T22:37:34.362Z,18.6
2023-05-24T22:43:11.008Z,18.6
2023-05-24T22:48:47.691Z,18.6
2023-05-24T22:54:39.033Z,18.6
